createdAt,value
2023-04-02T00:00:10.435Z,24.63
2023-04-02T00:03:02.896Z,19.92
2023-04-02T00:05:40.552Z,14.25
2023-04-02T00:08:18.876Z,16.98
2023-04-02T00:10:47.465Z,17.08
2023-04-02T00:13:15.046Z,18.58
2023-04-02T00:15:43.958Z,18.25
2023-04-02T00:18:19.163Z,20.67
2023-04-02T00:21:05.215Z,16.27
2023-04-02T00:23:32.877Z,19.70
2023-04-02T00:26:00.543Z,18.73
2023-04-02T00:28:28.123Z,20.73
2023-04-02T00:30:56.507Z,17.20
2023-04-02T00:33:26.660Z,19.33
2023-04-02T00:35:54.868Z,20.20
2023-04-02T00:38:24.643Z,15.85
2023-04-02T00:40:52.760Z,15.43
2023-04-02T00:43:20.555Z,13.80
2023-04-02T00:45:49.219Z,15.93
2023-04-02T00:48:23.699Z,15.85
2023-04-02T00:50:52.915Z,14.45
2023-04-02T00:53:30.561Z,15.75
2023-04-02T00:55:58.253Z,17.38
2023-04-02T00:58:30.244Z,16.70
2023-04-02T01:00:58.472Z,18.00
2023-04-02T01:03:31.773Z,17.40
2023-04-02T01:06:10.073Z,19.83
2023-04-02T09:23:35.919Z,4.35
2023-04-02T09:26:26.011Z,3.20
2023-04-02T09:28:59.741Z,4.32
2023-04-02T09:31:43.033Z,3.80
2023-04-02T09:34:31.201Z,4.97
2023-04-02T09:37:25.153Z,4.53
2023-04-02T09:39:54.115Z,3.85
2023-04-02T09:42:34.626Z,5.57
2023-04-02T09:45:14.149Z,7.38
2023-04-02T09:47:42.609Z,7.50
2023-04-02T09:50:13.817Z,11.63
2023-04-02T09:52:41.513Z,8.33
2023-04-02T09:55:14.897Z,4.85
2023-04-02T09:57:42.931Z,12.57
2023-04-02T10:00:25.994Z,9.15
2023-04-02T10:03:19.084Z,4.80
2023-04-02T10:05:47.420Z,4.75
2023-04-02T10:08:25.409Z,3.85
2023-04-02T10:10:54.210Z,3.70
2023-04-02T10:13:21.870Z,4.97
2023-04-02T10:16:06.651Z,4.53
2023-04-02T10:18:38.924Z,4.45
2023-04-02T10:21:07.918Z,4.15
2023-04-02T10:23:35.806Z,4.95
2023-04-02T10:26:12.138Z,4.70
2023-04-02T10:28:55.722Z,4.32
2023-04-02T10:31:26.393Z,3.70
2023-04-02T10:34:00.112Z,5.60
2023-04-02T10:36:50.787Z,6.45
2023-04-02T10:39:30.454Z,4.90
2023-04-02T10:42:06.720Z,4.38
2023-04-02T10:44:42.420Z,4.32
2023-04-02T10:47:22.530Z,3.83
2023-04-02T10:49:50.263Z,3.75
2023-04-02T10:52:26.755Z,3.92
2023-04-02T10:55:01.113Z,3.92
2023-04-02T10:57:32.252Z,5.88
2023-04-02T11:00:15.733Z,3.40
2023-04-02T11:02:50.227Z,4.50
2023-04-02T11:05:26.322Z,4.20
2023-04-02T11:07:59.179Z,3.55
2023-04-02T11:10:30.259Z,3.90
2023-04-02T11:13:23.675Z,4.63
2023-04-02T11:15:51.641Z,4.75
2023-04-02T11:18:32.518Z,6.03
2023-04-02T11:23:30.777Z,11.98
2023-04-02T11:26:37.048Z,6.10
2023-04-02T11:29:21.389Z,7.32
2023-04-02T11:31:50.200Z,7.75
2023-04-02T11:34:36.160Z,5.03
2023-04-02T11:37:07.680Z,7.00
2023-04-02T11:39:51.471Z,4.95
2023-04-02T11:42:19.122Z,5.53
2023-04-02T11:44:46.484Z,4.45
2023-04-02T11:47:15.040Z,6.50
2023-04-02T11:49:54.536Z,5.10
2023-04-02T11:52:33.096Z,4.68
2023-04-02T11:55:20.678Z,2.85
2023-04-02T11:57:48.533Z,4.55
2023-04-02T12:00:24.776Z,5.25
2023-04-02T12:02:52.532Z,5.40
2023-04-02T12:05:26.142Z,5.50
2023-04-02T12:08:11.203Z,5.35
2023-04-02T12:10:53.668Z,4.57
2023-04-02T12:13:41.384Z,4.50
2023-04-02T12:16:09.839Z,4.78
2023-04-02T12:18:44.787Z,5.53
2023-04-02T12:21:16.994Z,5.00
2023-04-02T12:23:48.109Z,5.68
2023-04-02T12:26:24.478Z,5.30
2023-04-02T12:28:52.118Z,8.45
2023-04-02T12:31:21.664Z,5.07
2023-04-02T12:33:51.659Z,4.75
2023-04-02T12:36:20.847Z,7.30
2023-04-02T12:38:53.440Z,6.65
2023-04-02T12:43:56.178Z,5.07
2023-04-02T12:46:23.648Z,7.55
2023-04-02T12:48:52.396Z,5.68
2023-04-02T12:51:19.886Z,4.97
2023-04-02T12:53:51.696Z,3.85
2023-04-02T12:56:19.884Z,7.25
2023-04-02T12:58:54.954Z,4.88
2023-04-02T13:01:23.195Z,5.47
2023-04-02T13:04:07.298Z,5.07
2023-04-02T13:06:35.819Z,6.00
2023-04-02T13:09:05.061Z,5.55
2023-04-02T13:11:41.492Z,7.03
2023-04-02T13:14:17.561Z,6.72
2023-04-02T13:16:44.920Z,5.38
2023-04-02T13:19:12.539Z,4.60
2023-04-02T13:21:39.915Z,7.28
2023-04-02T13:24:15.837Z,6.63
2023-04-02T13:26:43.206Z,5.68
2023-04-02T13:29:19.529Z,10.45
2023-04-02T13:31:47.431Z,6.75
2023-04-02T13:34:15.165Z,9.90
2023-04-02T13:36:42.486Z,4.90
2023-04-02T13:39:10.264Z,4.55
2023-04-02T13:41:48.333Z,3.97
2023-04-02T13:44:20.251Z,5.70
2023-04-02T13:46:47.699Z,6.13
2023-04-02T13:49:15.779Z,3.63
2023-04-02T13:51:44.393Z,5.32
2023-04-02T13:54:18.380Z,3.67
2023-04-02T13:56:45.873Z,4.53
2023-04-02T13:59:13.744Z,5.80
2023-04-02T14:01:41.613Z,5.65
2023-04-02T14:04:10.447Z,5.45
2023-04-02T14:06:37.943Z,4.10
2023-04-02T14:09:12.816Z,4.10
2023-04-02T14:11:49.269Z,6.20
2023-04-02T14:14:29.099Z,3.58
2023-04-02T14:17:08.699Z,5.63
2023-04-02T14:19:39.178Z,7.22
2023-04-02T14:22:22.837Z,4.97
2023-04-02T14:25:12.418Z,6.15
2023-04-02T14:27:54.678Z,6.85
2023-04-02T14:30:27.080Z,2.90
2023-04-02T14:32:54.519Z,4.95
2023-04-02T14:35:38.203Z,5.13
2023-04-02T14:38:05.563Z,7.00
2023-04-02T14:40:42.575Z,6.93
2023-04-02T14:43:22.481Z,6.28
2023-04-02T14:45:56.210Z,4.65
2023-04-02T14:48:23.638Z,4.18
2023-04-02T14:50:53.446Z,3.50
2023-04-02T14:53:24.197Z,3.88
2023-04-02T14:55:52.722Z,5.50
2023-04-02T14:58:28.813Z,5.38
2023-04-02T15:01:11.512Z,5.45
2023-04-02T15:03:45.605Z,6.53
2023-04-02T15:06:16.978Z,5.00
2023-04-02T15:08:58.570Z,5.55
2023-04-02T15:11:36.499Z,5.70
2023-04-02T15:14:21.174Z,7.20
2023-04-02T15:16:49.013Z,7.22
2023-04-02T15:19:17.138Z,7.68
2023-04-02T15:22:08.195Z,5.57
2023-04-02T15:24:36.790Z,8.30
2023-04-02T15:27:23.818Z,9.48
2023-04-02T15:30:00.886Z,8.35
2023-04-02T15:32:34.624Z,5.57
2023-04-02T15:35:20.786Z,6.63
2023-04-02T15:38:05.450Z,6.18
2023-04-02T15:40:32.767Z,8.18
2023-04-02T15:43:00.498Z,5.22
2023-04-02T15:45:42.087Z,7.43
2023-04-02T15:48:15.760Z,7.55
2023-04-02T15:50:49.532Z,4.13
2023-04-02T15:53:32.282Z,8.60
2023-04-02T15:56:07.688Z,6.03
2023-04-02T15:58:51.674Z,4.00
2023-04-02T16:01:27.088Z,4.72
2023-04-02T16:04:02.183Z,4.35
2023-04-02T16:06:48.517Z,4.03
2023-04-02T16:09:28.204Z,4.72
2023-04-02T16:11:57.362Z,3.38
2023-04-02T16:14:27.393Z,3.58
2023-04-02T16:16:56.872Z,4.07
2023-04-02T16:19:27.630Z,2.80
2023-04-02T16:22:10.129Z,4.28
2023-04-02T16:24:37.889Z,2.85
2023-04-02T16:27:20.439Z,5.68
2023-04-02T16:29:55.577Z,3.63
2023-04-02T16:32:49.790Z,4.45
2023-04-02T16:38:20.247Z,3.40
2023-04-02T16:41:06.787Z,4.78
2023-04-02T16:44:01.605Z,9.00
2023-04-02T16:46:40.636Z,5.93
2023-04-02T16:49:30.008Z,3.95
2023-04-02T16:52:05.538Z,4.90
2023-04-02T16:54:43.492Z,4.05
2023-04-02T16:57:16.926Z,4.32
2023-04-02T16:59:49.067Z,4.38
2023-04-02T17:02:34.716Z,4.68
2023-04-02T17:05:06.529Z,6.78
2023-04-02T17:07:55.893Z,5.72
2023-04-02T17:10:29.108Z,7.13
2023-04-02T17:13:19.878Z,6.18
2023-04-02T17:15:51.804Z,5.95
2023-04-02T17:20:47.859Z,3.05
2023-04-02T17:23:16.888Z,5.22
2023-04-02T17:25:58.944Z,5.93
2023-04-02T17:28:28.037Z,3.78
2023-04-02T17:30:57.573Z,5.03
2023-04-02T17:33:25.397Z,4.95
2023-04-02T17:36:12.309Z,3.58
2023-04-02T17:38:45.948Z,4.43
2023-04-02T17:41:28.436Z,5.43
2023-04-02T17:44:14.333Z,4.25
2023-04-02T17:46:47.746Z,5.57
2023-04-02T17:49:35.429Z,3.97
2023-04-02T17:52:13.116Z,4.97
2023-04-02T17:54:53.112Z,4.45
2023-04-02T17:57:38.814Z,4.40
2023-04-02T18:00:21.775Z,4.47
2023-04-02T18:05:23.011Z,4.60
2023-04-02T18:07:59.565Z,4.47
2023-04-02T18:10:33.640Z,3.83
2023-04-02T18:13:01.799Z,4.85
2023-04-02T18:15:48.210Z,3.45
2023-04-02T18:18:39.003Z,6.85
2023-04-02T18:21:11.356Z,5.55
2023-04-02T18:23:56.948Z,4.80
2023-04-02T18:26:24.688Z,3.63
2023-04-02T18:29:01.924Z,6.32
2023-04-02T18:31:37.236Z,4.18
2023-04-02T18:34:15.160Z,4.55
2023-04-02T18:36:48.968Z,4.38
2023-04-02T18:39:26.537Z,8.77
2023-04-02T18:42:13.372Z,4.30
2023-04-02T18:44:40.731Z,5.93
2023-04-02T18:47:15.563Z,6.10
2023-04-02T18:49:49.699Z,7.28
2023-04-02T18:52:18.237Z,4.43
2023-04-02T18:54:48.827Z,5.00
2023-04-02T18:57:30.015Z,3.28
2023-04-02T19:00:00.286Z,5.75
2023-04-02T19:02:31.078Z,4.80
2023-04-02T19:05:21.855Z,4.40
2023-04-02T19:07:50.886Z,3.28
2023-04-02T19:10:25.643Z,4.97
2023-04-02T19:12:54.184Z,5.70
2023-04-02T19:15:22.887Z,3.47
2023-04-02T19:18:13.702Z,6.97
2023-04-02T19:20:53.785Z,7.80
2023-04-02T19:23:27.705Z,4.50
2023-04-02T19:25:58.222Z,4.85
2023-04-02T19:28:32.186Z,3.63
2023-04-02T19:30:59.814Z,6.40
2023-04-02T19:33:39.703Z,3.90
2023-04-02T19:36:07.378Z,4.10
2023-04-02T19:38:54.184Z,3.38
2023-04-02T19:41:28.305Z,6.75
2023-04-02T19:44:02.972Z,9.57
2023-04-02T19:46:30.411Z,3.80
2023-04-02T19:48:59.715Z,4.28
2023-04-02T19:51:27.347Z,8.05
2023-04-02T19:53:55.292Z,5.68
2023-04-02T19:56:22.791Z,7.03
2023-04-02T19:58:50.572Z,7.40
2023-04-02T20:01:18.628Z,4.65
2023-04-02T20:03:46.460Z,7.65
2023-04-02T20:06:13.926Z,3.60
2023-04-02T20:08:41.643Z,4.70
2023-04-02T20:11:09.039Z,4.70
2023-04-02T20:13:36.808Z,4.72
2023-04-02T20:16:04.909Z,4.72
2023-04-02T20:18:32.692Z,3.85
2023-04-02T20:21:03.638Z,3.25
2023-04-02T20:23:35.248Z,5.32
2023-04-02T20:26:03.154Z,3.25
2023-04-02T20:28:31.020Z,5.35
2023-04-02T20:31:08.854Z,7.43
2023-04-02T20:33:38.749Z,4.47
2023-04-02T20:36:52.061Z,4.88
2023-04-02T20:39:29.810Z,4.95
2023-04-02T20:41:57.353Z,6.30
2023-04-02T20:44:25.379Z,3.85
2023-04-02T20:46:55.767Z,3.40
2023-04-02T20:49:23.420Z,5.28
2023-04-02T20:51:51.042Z,3.47
2023-04-02T20:54:18.888Z,4.57
2023-04-02T20:56:46.277Z,2.95
2023-04-02T20:59:13.948Z,3.70
2023-04-02T21:01:41.334Z,3.17
2023-04-02T21:04:09.241Z,7.30
2023-04-02T21:06:37.836Z,3.90
2023-04-02T21:09:08.473Z,3.38
2023-04-02T21:11:36.753Z,2.70
2023-04-02T21:14:13.206Z,3.83
2023-04-02T21:16:41.083Z,6.85
2023-04-02T21:19:09.925Z,1.98
2023-04-02T21:21:38.556Z,4.68
2023-04-02T21:24:07.324Z,3.50
2023-04-02T21:26:37.217Z,3.60
2023-04-02T21:29:05.433Z,2.58
2023-04-02T21:31:34.540Z,4.38
2023-04-02T21:34:02.632Z,4.38
2023-04-02T21:36:31.127Z,5.43
2023-04-02T21:38:59.944Z,7.28
2023-04-02T21:41:28.792Z,2.17
2023-04-02T21:44:03.160Z,2.35
2023-04-02T21:46:31.839Z,4.75
2023-04-02T21:48:59.795Z,2.72
2023-04-02T21:51:28.369Z,2.97
2023-04-02T21:53:56.155Z,4.50
2023-04-02T21:56:24.577Z,2.78
2023-04-02T21:58:52.395Z,3.40
2023-04-02T22:01:27.301Z,5.90
2023-04-02T22:03:59.285Z,5.13
2023-04-02T22:06:27.537Z,3.03
2023-04-02T22:08:56.967Z,6.13
2023-04-02T22:11:31.306Z,3.33
2023-04-02T22:13:59.682Z,3.33
2023-04-02T22:16:28.167Z,5.57
2023-04-02T22:18:56.681Z,4.88
2023-04-02T22:21:24.515Z,2.63
2023-04-02T22:23:52.254Z,2.97
2023-04-02T22:26:20.248Z,2.42
2023-04-02T22:28:48.044Z,3.88
2023-04-02T22:31:16.933Z,5.45
2023-04-02T22:33:45.271Z,3.70
2023-04-02T22:36:13.329Z,3.58
2023-04-02T22:38:41.258Z,4.47
2023-04-02T22:41:08.617Z,5.63
2023-04-02T22:43:36.988Z,3.33
2023-04-02T22:46:04.701Z,5.80
2023-04-02T22:48:32.597Z,3.42
2023-04-02T22:50:59.968Z,2.58
2023-04-02T22:53:27.594Z,5.47
2023-04-02T22:56:07.383Z,3.33
2023-04-02T22:58:35.327Z,3.83
2023-04-02T23:01:04.311Z,4.40
2023-04-02T23:03:31.966Z,4.45
2023-04-02T23:06:00.889Z,1.27
2023-04-02T23:08:28.552Z,5.47
2023-04-02T23:11:12.521Z,7.03
2023-04-02T23:13:40.690Z,2.90
2023-04-02T23:16:10.211Z,4.65
2023-04-02T23:18:38.725Z,4.13
2023-04-02T23:21:06.383Z,4.10
2023-04-02T23:23:34.452Z,5.65
2023-04-02T23:26:05.937Z,3.60
2023-04-02T23:28:33.884Z,2.80
2023-04-02T23:31:02.064Z,6.47
2023-04-02T23:33:29.795Z,3.50
2023-04-02T23:35:57.226Z,3.88
2023-04-02T23:38:25.013Z,3.00
2023-04-02T23:40:52.855Z,2.53
2023-04-02T23:43:20.756Z,4.35
2023-04-02T23:45:48.975Z,4.28
2023-04-02T23:48:17.063Z,4.80
2023-04-02T23:50:45.092Z,4.50
2023-04-02T23:53:13.486Z,4.35
2023-04-02T23:55:41.021Z,5.93
2023-04-02T23:58:08.744Z,5.90
